createdAt,value
2022-12-13T00:01:53.063Z,1.80
2022-12-13T00:05:35.064Z,1.80
2022-12-13T00:09:18.647Z,1.80
2022-12-13T00:13:00.419Z,1.80
2022-12-13T00:16:46.767Z,1.80
2022-12-13T00:20:28.561Z,1.80
2022-12-13T00:24:10.356Z,1.80
2022-12-13T00:27:52.171Z,1.80
2022-12-13T00:35:42.652Z,1.90
2022-12-13T00:39:24.681Z,1.90
2022-12-13T00:43:06.426Z,1.90
2022-12-13T00:46:48.188Z,1.90
2022-12-13T00:50:29.949Z,1.90
2022-12-13T00:54:11.814Z,1.90
2022-12-13T00:57:53.729Z,1.90
2022-12-13T01:01:36.633Z,1.90
2022-12-13T01:05:38.586Z,1.90
2022-12-13T01:09:25.513Z,2.00
2022-12-13T01:13:07.229Z,1.90
2022-12-13T01:16:50.220Z,1.90
2022-12-13T01:20:32.199Z,1.90
2022-12-13T01:24:14.552Z,1.80
2022-12-13T01:27:56.402Z,1.80
2022-12-13T01:31:41.462Z,1.70
2022-12-13T01:35:23.296Z,1.60
2022-12-13T01:39:14.699Z,1.50
2022-12-13T01:42:56.682Z,1.40
2022-12-13T01:46:39.689Z,1.30
2022-12-13T01:50:34.723Z,1.20
2022-12-13T01:54:21.343Z,1.10
2022-12-13T01:58:05.715Z,1.00
2022-12-13T02:01:49.668Z,0.90
2022-12-13T02:05:40.477Z,0.90
2022-12-13T02:09:22.981Z,0.80
2022-12-13T02:13:05.552Z,0.80
2022-12-13T02:17:05.831Z,0.70
2022-12-13T02:21:12.265Z,0.70
2022-12-13T02:25:22.084Z,0.60
2022-12-13T02:29:30.356Z,0.60
2022-12-13T02:33:37.317Z,0.50
2022-12-13T02:37:39.282Z,0.50
2022-12-13T02:41:34.418Z,0.40
2022-12-13T02:45:23.150Z,0.40
2022-12-13T02:49:07.808Z,0.30
2022-12-13T02:52:51.401Z,0.30
2022-12-13T02:56:33.239Z,0.30
2022-12-13T03:00:23.565Z,0.30
2022-12-13T03:04:35.406Z,0.20
2022-12-13T03:08:30.982Z,0.20
2022-12-13T03:12:56.957Z,0.10
2022-12-13T03:16:43.865Z,0.10
2022-12-13T03:20:28.162Z,0.10
2022-12-13T03:24:10.123Z,0.00
2022-12-13T03:27:52.543Z,0.00
2022-12-13T03:31:34.458Z,0.00
2022-12-13T03:35:22.218Z,-0.10
2022-12-13T03:39:04.560Z,-0.10
2022-12-13T03:42:47.818Z,-0.10
2022-12-13T03:46:29.570Z,-0.20
2022-12-13T03:50:26.164Z,-0.20
2022-12-13T03:54:08.585Z,-0.20
2022-12-13T03:57:50.334Z,-0.20
2022-12-13T04:01:32.130Z,-0.30
2022-12-13T04:05:14.499Z,-0.30
2022-12-13T04:08:56.515Z,-0.30
2022-12-13T04:12:57.075Z,-0.30
2022-12-13T04:16:42.302Z,-0.30
2022-12-13T04:20:24.241Z,-0.30
2022-12-13T04:24:06.251Z,-0.40
2022-12-13T04:27:47.977Z,-0.40
2022-12-13T04:31:29.730Z,-0.40
2022-12-13T04:35:11.465Z,-0.40
2022-12-13T04:38:53.196Z,-0.40
2022-12-13T04:42:34.964Z,-0.50
2022-12-13T04:46:16.687Z,-0.40
2022-12-13T04:49:58.461Z,-0.40
2022-12-13T04:53:40.258Z,-0.50
2022-12-13T04:57:22.006Z,-0.40
2022-12-13T05:01:11.420Z,-0.40
2022-12-13T05:04:54.347Z,-0.50
2022-12-13T05:08:37.647Z,-0.50
2022-12-13T05:12:21.979Z,-0.50
2022-12-13T05:16:07.498Z,-0.50
2022-12-13T05:19:49.290Z,-0.50
2022-12-13T05:23:31.536Z,-0.50
2022-12-13T05:27:25.441Z,-0.50
2022-12-13T05:31:23.201Z,-0.50
2022-12-13T05:35:06.456Z,-0.60
2022-12-13T05:38:48.185Z,-0.60
2022-12-13T05:42:30.133Z,-0.50
2022-12-13T05:46:13.230Z,-0.50
2022-12-13T05:49:55.129Z,-0.50
2022-12-13T05:53:37.182Z,-0.50
2022-12-13T05:57:18.884Z,-0.50
2022-12-13T06:01:14.995Z,-0.50
2022-12-13T06:04:57.212Z,-0.40
2022-12-13T06:08:39.931Z,-0.40
2022-12-13T06:12:31.645Z,-0.40
2022-12-13T06:16:23.936Z,-0.30
2022-12-13T06:20:23.431Z,-0.30
2022-12-13T06:24:08.714Z,-0.30
2022-12-13T06:27:50.408Z,-0.30
2022-12-13T06:31:32.732Z,-0.30
2022-12-13T06:35:28.385Z,-0.30
2022-12-13T06:39:11.537Z,-0.30
2022-12-13T06:42:53.321Z,-0.30
2022-12-13T06:46:35.287Z,-0.30
2022-12-13T06:50:17.351Z,-0.30
2022-12-13T06:53:59.057Z,-0.30
2022-12-13T06:57:43.856Z,-0.30
2022-12-13T07:01:25.845Z,-0.30
2022-12-13T07:05:08.043Z,-0.30
2022-12-13T07:08:55.695Z,-0.40
2022-12-13T07:12:37.442Z,-0.40
2022-12-13T07:16:20.134Z,-0.40
2022-12-13T07:20:09.777Z,-0.40
2022-12-13T07:23:54.926Z,-0.40
2022-12-13T07:27:37.344Z,-0.40
2022-12-13T07:31:19.200Z,-0.40
2022-12-13T07:35:00.959Z,-0.40
2022-12-13T07:38:43.070Z,-0.40
2022-12-13T07:42:26.912Z,-0.40
2022-12-13T07:46:11.417Z,-0.40
2022-12-13T07:49:53.188Z,-0.40
2022-12-13T07:53:35.275Z,-0.30
2022-12-13T07:57:17.001Z,-0.30
2022-12-13T08:01:01.240Z,-0.30
2022-12-13T08:04:43.766Z,-0.30
2022-12-13T08:08:31.222Z,-0.30
2022-12-13T08:12:13.511Z,-0.30
2022-12-13T08:16:26.486Z,-0.30
2022-12-13T08:20:09.829Z,-0.30
2022-12-13T08:23:51.654Z,-0.30
2022-12-13T08:27:33.885Z,-0.30
2022-12-13T08:31:15.652Z,-0.30
2022-12-13T08:34:57.531Z,-0.30
2022-12-13T08:38:39.484Z,-0.20
2022-12-13T08:42:21.370Z,-0.20
2022-12-13T08:46:03.735Z,-0.20
2022-12-13T08:49:45.498Z,-0.20
2022-12-13T08:53:28.689Z,-0.20
2022-12-13T08:57:12.915Z,-0.10
2022-12-13T09:00:54.994Z,-0.10
2022-12-13T09:04:36.748Z,-0.10
2022-12-13T09:08:24.015Z,0.00
2022-12-13T09:12:10.892Z,0.00
2022-12-13T09:16:23.216Z,0.00
2022-12-13T09:20:10.062Z,0.10
2022-12-13T09:24:24.358Z,0.10
2022-12-13T09:28:08.510Z,0.10
2022-12-13T09:31:53.303Z,0.20
2022-12-13T09:35:38.468Z,0.20
2022-12-13T09:39:20.239Z,0.30
2022-12-13T09:43:13.697Z,0.40
2022-12-13T09:47:13.969Z,0.40
2022-12-13T09:50:58.990Z,0.40
2022-12-13T09:54:58.995Z,0.40
2022-12-13T09:58:40.835Z,0.50
2022-12-13T10:02:28.946Z,0.60
2022-12-13T10:06:22.686Z,0.70
2022-12-13T10:10:05.604Z,0.70
2022-12-13T10:14:11.097Z,0.90
2022-12-13T10:17:55.651Z,1.00
2022-12-13T10:21:43.050Z,1.10
2022-12-13T10:25:54.686Z,1.20
2022-12-13T10:30:12.848Z,1.30
2022-12-13T10:33:56.986Z,1.40
2022-12-13T10:37:38.742Z,1.50
2022-12-13T10:41:31.108Z,1.60
2022-12-13T10:45:23.815Z,1.70
2022-12-13T10:49:26.606Z,1.70
2022-12-13T10:53:17.090Z,1.80
2022-12-13T10:57:02.680Z,1.80
2022-12-13T11:00:46.628Z,1.80
2022-12-13T11:04:29.884Z,1.80
2022-12-13T11:08:20.913Z,1.90
2022-12-13T11:12:10.753Z,1.90
2022-12-13T11:15:56.548Z,2.00
2022-12-13T11:19:45.424Z,2.00
2022-12-13T11:23:33.678Z,2.10
2022-12-13T11:27:33.934Z,2.10
2022-12-13T11:31:43.789Z,2.20
2022-12-13T11:35:41.180Z,2.30
2022-12-13T11:39:23.269Z,2.30
2022-12-13T11:43:17.328Z,2.40
2022-12-13T11:47:01.112Z,2.40
2022-12-13T11:50:49.877Z,2.50
2022-12-13T11:54:52.709Z,2.50
2022-12-13T11:59:03.367Z,2.50
2022-12-13T12:02:51.135Z,2.60
2022-12-13T12:06:39.782Z,2.60
2022-12-13T12:10:49.718Z,2.70
2022-12-13T12:14:41.473Z,2.70
2022-12-13T12:18:23.629Z,2.70
2022-12-13T12:22:14.493Z,2.80
2022-12-13T12:26:10.818Z,2.90
2022-12-13T12:30:23.348Z,3.10
2022-12-13T12:34:33.407Z,3.20
2022-12-13T12:38:30.881Z,3.40
2022-12-13T12:42:50.004Z,3.40
2022-12-13T12:47:32.643Z,3.40
2022-12-13T12:51:23.881Z,3.40
2022-12-13T12:55:30.527Z,3.30
2022-12-13T12:59:58.210Z,3.30
2022-12-13T13:03:44.718Z,3.30
2022-12-13T13:07:40.045Z,3.30
2022-12-13T13:11:25.900Z,3.20
2022-12-13T13:15:33.919Z,3.20
2022-12-13T13:19:15.652Z,3.20
2022-12-13T13:23:32.024Z,3.20
2022-12-13T13:27:09.184Z,3.30
2022-12-13T13:31:09.103Z,3.30
2022-12-13T13:34:53.286Z,3.30
2022-12-13T13:38:53.060Z,3.30
2022-12-13T13:42:34.829Z,3.30
2022-12-13T13:46:16.717Z,3.30
2022-12-13T13:50:13.214Z,3.30
2022-12-13T13:54:00.925Z,3.30
2022-12-13T13:58:10.276Z,3.30
2022-12-13T14:02:17.472Z,3.30
2022-12-13T14:06:37.024Z,3.30
2022-12-13T14:10:34.958Z,3.30
2022-12-13T14:14:22.912Z,3.30
2022-12-13T14:18:29.250Z,3.30
2022-12-13T14:22:39.897Z,3.30
2022-12-13T14:26:37.115Z,3.20
2022-12-13T14:30:27.818Z,3.20
2022-12-13T14:34:30.897Z,3.20
2022-12-13T14:38:23.362Z,3.20
2022-12-13T14:42:24.390Z,3.10
2022-12-13T14:46:08.023Z,3.10
2022-12-13T14:49:55.190Z,3.10
2022-12-13T14:53:43.587Z,3.00
2022-12-13T14:57:28.511Z,3.00
2022-12-13T15:01:33.894Z,3.00
2022-12-13T15:05:28.840Z,2.90
2022-12-13T15:09:13.931Z,2.90
2022-12-13T15:12:56.047Z,2.80
2022-12-13T15:16:38.111Z,2.80
2022-12-13T15:20:24.962Z,2.80
2022-12-13T15:24:07.656Z,2.70
2022-12-13T15:27:50.761Z,2.70
2022-12-13T15:31:34.346Z,2.60
2022-12-13T15:35:17.017Z,2.60
2022-12-13T15:39:01.339Z,2.50
2022-12-13T15:42:49.229Z,2.50
2022-12-13T15:46:35.946Z,2.40
2022-12-13T15:50:43.755Z,2.40
2022-12-13T15:54:29.618Z,2.30
2022-12-13T15:58:25.827Z,2.30
2022-12-13T16:02:21.065Z,2.30
2022-12-13T16:06:06.531Z,2.20
2022-12-13T16:09:50.738Z,2.20
2022-12-13T16:13:36.774Z,2.20
2022-12-13T16:17:29.559Z,2.20
2022-12-13T16:21:11.357Z,2.10
2022-12-13T16:24:53.220Z,2.10
2022-12-13T16:28:34.901Z,2.10
2022-12-13T16:32:16.685Z,2.10
2022-12-13T16:35:58.522Z,2.00
2022-12-13T16:39:40.317Z,2.00
2022-12-13T16:43:32.874Z,2.00
2022-12-13T16:47:24.689Z,1.90
2022-12-13T16:51:11.978Z,1.90
2022-12-13T16:54:53.697Z,1.90
2022-12-13T16:58:35.440Z,1.90
2022-12-13T17:02:18.166Z,1.80
2022-12-13T17:06:00.573Z,1.90
2022-12-13T17:09:42.401Z,1.80
2022-12-13T17:13:25.007Z,1.90
2022-12-13T17:17:06.988Z,1.90
2022-12-13T17:20:48.827Z,1.80
2022-12-13T17:24:40.171Z,1.80
2022-12-13T17:28:21.970Z,1.80
2022-12-13T17:32:04.538Z,1.80
2022-12-13T17:35:47.372Z,1.80
2022-12-13T17:39:29.166Z,1.80
2022-12-13T17:43:28.844Z,1.80
2022-12-13T17:47:13.286Z,1.70
2022-12-13T17:50:55.099Z,1.70
2022-12-13T17:54:36.913Z,1.70
2022-12-13T17:58:19.208Z,1.70
2022-12-13T18:02:00.924Z,1.70
2022-12-13T18:05:42.726Z,1.60
2022-12-13T18:09:24.441Z,1.60
2022-12-13T18:13:06.522Z,1.60
2022-12-13T18:16:48.251Z,1.50
2022-12-13T18:20:30.192Z,1.50
2022-12-13T18:24:12.336Z,1.50
2022-12-13T18:28:00.637Z,1.50
2022-12-13T18:31:42.968Z,1.50
2022-12-13T18:35:25.105Z,1.50
2022-12-13T18:39:06.910Z,1.50
2022-12-13T18:42:48.924Z,1.50
2022-12-13T18:46:33.137Z,1.50
2022-12-13T18:50:15.253Z,1.50
2022-12-13T18:53:57.387Z,1.50
2022-12-13T18:57:39.181Z,1.50
2022-12-13T19:01:21.099Z,1.50
2022-12-13T19:05:03.044Z,1.50
2022-12-13T19:08:48.550Z,1.50
2022-12-13T19:12:31.860Z,1.50
2022-12-13T19:16:17.689Z,1.40
2022-12-13T19:19:59.517Z,1.40
2022-12-13T19:23:41.437Z,1.40
2022-12-13T19:27:23.162Z,1.40
2022-12-13T19:31:06.545Z,1.50
2022-12-13T19:34:48.417Z,1.40
2022-12-13T19:38:30.317Z,1.40
2022-12-13T19:42:12.080Z,1.40
2022-12-13T19:45:53.937Z,1.40
2022-12-13T19:49:35.836Z,1.40
2022-12-13T19:53:17.669Z,1.40
2022-12-13T19:57:05.465Z,1.40
2022-12-13T20:00:49.349Z,1.30
2022-12-13T20:04:31.605Z,1.30
2022-12-13T20:08:13.421Z,1.30
2022-12-13T20:11:55.305Z,1.20
2022-12-13T20:15:37.186Z,1.30
2022-12-13T20:19:18.904Z,1.20
2022-12-13T20:23:00.670Z,1.20
2022-12-13T20:26:42.498Z,1.20
2022-12-13T20:30:24.717Z,1.20
2022-12-13T20:34:10.190Z,1.20
2022-12-13T20:37:53.226Z,1.10
2022-12-13T20:41:36.439Z,1.10
2022-12-13T20:45:18.198Z,1.10
2022-12-13T20:49:02.609Z,1.10
2022-12-13T20:52:50.555Z,1.10
2022-12-13T20:56:35.253Z,1.00
2022-12-13T21:00:17.752Z,1.10
2022-12-13T21:04:01.739Z,1.10
2022-12-13T21:08:01.965Z,1.10
2022-12-13T21:11:47.022Z,1.10
2022-12-13T21:15:28.800Z,1.10
2022-12-13T21:19:25.345Z,1.10
2022-12-13T21:23:07.080Z,1.00
2022-12-13T21:26:49.139Z,1.00
2022-12-13T21:30:30.899Z,1.00
2022-12-13T21:34:13.221Z,1.10
2022-12-13T21:37:55.269Z,1.10
2022-12-13T21:41:37.010Z,1.00
2022-12-13T21:45:18.758Z,1.00
2022-12-13T21:49:00.546Z,1.00
2022-12-13T21:52:46.553Z,1.00
2022-12-13T21:56:50.593Z,1.00
2022-12-13T22:00:35.052Z,1.00
2022-12-13T22:04:18.453Z,0.90
2022-12-13T22:08:00.219Z,0.90
2022-12-13T22:11:42.084Z,0.90
2022-12-13T22:15:23.877Z,0.90
2022-12-13T22:19:05.658Z,0.90
2022-12-13T22:22:48.566Z,0.80
2022-12-13T22:26:30.355Z,0.80
2022-12-13T22:30:12.245Z,0.80
2022-12-13T22:33:56.963Z,0.80
2022-12-13T22:37:39.650Z,0.80
2022-12-13T22:41:21.395Z,0.80
2022-12-13T22:45:03.249Z,0.80
2022-12-13T22:48:45.517Z,0.80
2022-12-13T22:52:33.412Z,0.80
2022-12-13T22:56:21.439Z,0.80
2022-12-13T23:00:05.197Z,0.80
2022-12-13T23:03:48.052Z,0.80
2022-12-13T23:07:29.756Z,0.80
2022-12-13T23:11:31.940Z,0.80
2022-12-13T23:15:13.890Z,0.80
2022-12-13T23:19:16.778Z,0.70
2022-12-13T23:22:58.595Z,0.70
2022-12-13T23:26:40.774Z,0.70
2022-12-13T23:30:22.730Z,0.70
2022-12-13T23:34:04.914Z,0.70
2022-12-13T23:37:48.535Z,0.70
2022-12-13T23:41:33.936Z,0.70
2022-12-13T23:45:15.929Z,0.60
2022-12-13T23:49:02.111Z,0.60
2022-12-13T23:52:44.036Z,0.60
2022-12-13T23:56:25.946Z,0.60
